Time;durP1;ratioP1;P1;durP2;ratioP2;P2;SDS_P1;SDS_P2;PMS_P1;PMS_P2;Temp;Humidity;BMP_temperature;BMP_pressure;BME280_temperature;BME280_humidity;BME280_pressure;Samples;Min_cycle;Max_cycle;Signal;HPM_P1;HPM_P2
2023/09/22 00:00:38;;;;;;;;;2.00;1.00;;;;;16.36;59.11;99559.06;5083287;28;45253;-70
2023/09/22 00:03:05;;;;;;;;;1.00;0.00;;;;;16.36;59.03;99559.06;5083115;28;46534;-70
2023/09/22 00:05:30;;;;;;;;;0.75;0.75;;;;;16.36;59.56;99575.84;5083358;28;45332;-70
2023/09/22 00:07:55;;;;;;;;;0.00;0.00;;;;;16.37;59.50;99569.59;5083226;28;45461;-70
2023/09/22 00:10:21;;;;;;;;;4.00;1.00;;;;;16.34;59.28;99568.91;5083154;28;45428;-71
2023/09/22 00:12:46;;;;;;;;;1.00;0.00;;;;;16.33;59.20;99570.72;5064932;28;46892;-70
2023/09/22 00:15:11;;;;;;;;;1.00;1.00;;;;;16.33;59.29;99569.88;5082929;28;45369;-70
2023/09/22 00:17:37;;;;;;;;;0.00;0.00;;;;;16.33;59.23;99580.47;5083426;28;45345;-70
2023/09/22 00:20:07;;;;;;;;;0.00;0.00;;;;;16.30;59.55;99559.41;5081666;28;45598;-70
2023/09/22 00:22:33;;;;;;;;;0.00;0.00;;;;;16.28;59.34;99561.31;5082838;28;46962;-70
2023/09/22 00:24:58;;;;;;;;;2.75;1.00;;;;;16.25;59.27;99557.91;5082186;28;45591;-70
2023/09/22 00:27:23;;;;;;;;;2.00;1.00;;;;;16.25;59.64;99552.59;5083240;28;45265;-70
2023/09/22 00:29:49;;;;;;;;;2.00;0.00;;;;;16.26;59.32;99556.09;5082843;28;45355;-70
2023/09/22 00:32:14;;;;;;;;;2.00;2.00;;;;;16.25;59.58;99551.72;5082943;28;45459;-70
2023/09/22 00:34:39;;;;;;;;;0.00;0.00;;;;;16.28;59.41;99561.31;5082602;28;53372;-70
2023/09/22 00:37:05;;;;;;;;;3.00;1.75;;;;;16.25;59.45;99557.91;5080775;28;45448;-70
2023/09/22 00:39:30;;;;;;;;;1.50;0.25;;;;;16.25;59.57;99562.31;5074723;27;45444;-70
2023/09/22 00:41:56;;;;;;;;;0.50;0.00;;;;;16.23;59.30;99557.13;5103065;27;46333;-70
2023/09/22 00:44:22;;;;;;;;;0.00;0.00;;;;;16.23;59.39;99558.94;5084952;27;45864;-70
2023/09/22 00:46:47;;;;;;;;;1.25;0.00;;;;;16.20;59.77;99565.25;5103109;27;45376;-70
2023/09/22 00:49:13;;;;;;;;;0.00;0.00;;;;;16.20;59.14;99564.38;5103110;27;45308;-70
2023/09/22 00:51:39;;;;;;;;;1.00;0.00;;;;;16.16;59.47;99554.91;5102967;27;45340;-70
2023/09/22 00:54:05;;;;;;;;;1.50;0.00;;;;;16.14;59.36;99564.72;5091692;27;45274;-70
2023/09/22 00:56:31;;;;;;;;;0.25;0.00;;;;;16.08;59.23;99552.69;5082446;28;45284;-70
2023/09/22 00:58:56;;;;;;;;;1.00;1.00;;;;;16.07;59.43;99559.78;5082340;28;45223;-70
2023/09/22 01:01:23;;;;;;;;;0.00;0.00;;;;;16.09;59.55;99557.06;5082414;28;45209;-70
2023/09/22 01:03:51;;;;;;;;;0.75;0.75;;;;;16.08;59.37;99561.47;5082326;28;45339;-70
2023/09/22 01:06:19;;;;;;;;;1.00;1.00;;;;;16.05;59.30;99559.00;5082120;28;45269;-70
2023/09/22 01:08:45;;;;;;;;;0.67;0.00;;;;;16.03;59.68;99552.94;5082190;28;45247;-70
2023/09/22 01:11:10;;;;;;;;;0.25;0.25;;;;;16.01;59.38;99559.25;5082069;28;45770;-70
2023/09/22 01:13:35;;;;;;;;;2.00;0.50;;;;;15.99;59.42;99567.31;5081943;28;49042;-69
2023/09/22 01:16:02;;;;;;;;;0.00;0.00;;;;;15.92;59.36;99565.94;5081722;28;56641;-70
2023/09/22 01:18:28;;;;;;;;;0.00;0.00;;;;;15.89;59.27;99566.94;5082237;28;45225;-70
2023/09/22 01:20:57;;;;;;;;;0.33;0.33;;;;;15.91;59.51;99573.03;5081848;28;45352;-70
2023/09/22 01:23:22;;;;;;;;;0.75;0.75;;;;;15.84;59.60;99560.22;5081808;28;45318;-70
2023/09/22 01:25:48;;;;;;;;;0.00;0.00;;;;;15.77;59.57;99541.97;5081568;28;45273;-70
2023/09/22 01:28:14;;;;;;;;;0.75;0.00;;;;;15.84;59.35;99553.09;5081978;28;45583;-70
2023/09/22 01:30:39;;;;;;;;;0.00;0.00;;;;;15.81;59.49;99537.38;5082035;28;45476;-70
2023/09/22 01:33:05;;;;;;;;;1.75;0.50;;;;;15.79;59.31;99541.88;5081826;28;45244;-69
2023/09/22 01:35:35;;;;;;;;;0.00;0.00;;;;;15.79;59.27;99538.38;5082097;28;45305;-70
2023/09/22 01:38:11;;;;;;;;;1.75;0.00;;;;;15.76;59.54;99540.25;5076559;28;45477;-69
2023/09/22 01:40:37;;;;;;;;;0.50;0.50;;;;;15.76;59.01;99550.00;5081538;28;46170;-69
2023/09/22 01:43:03;;;;;;;;;0.00;0.00;;;;;15.72;59.74;99540.50;5081537;28;45500;-69
2023/09/22 01:45:29;;;;;;;;;2.00;2.00;;;;;15.72;59.54;99554.63;5081826;28;45354;-69
2023/09/22 01:47:54;;;;;;;;;2.50;1.00;;;;;15.66;59.37;99547.00;5081578;28;45158;-70
2023/09/22 01:50:19;;;;;;;;;2.75;0.75;;;;;15.68;59.25;99558.34;5081180;28;59462;-70
2023/09/22 01:52:45;;;;;;;;;0.00;0.00;;;;;15.65;59.38;99553.22;5063263;28;45340;-70
2023/09/22 01:55:11;;;;;;;;;0.00;0.00;;;;;15.63;59.16;99554.25;5081475;28;45270;-70
2023/09/22 01:57:36;;;;;;;;;0.25;0.25;;;;;15.64;59.48;99555.97;5081029;28;45162;-70
2023/09/22 02:00:10;;;;;;;;;0.67;0.67;;;;;15.61;59.43;99559.63;5081360;28;46286;-69
2023/09/22 02:02:35;;;;;;;;;1.00;0.75;;;;;15.59;59.36;99559.69;5081273;28;45228;-70
2023/09/22 02:05:01;;;;;;;;;0.00;0.00;;;;;15.57;59.52;99561.59;5062277;28;45174;-70
2023/09/22 02:07:26;;;;;;;;;0.00;0.00;;;;;15.59;59.57;99562.34;5081340;28;45311;-69
2023/09/22 02:09:51;;;;;;;;;1.00;1.00;;;;;15.57;59.55;99564.22;5081330;28;45986;-69
2023/09/22 02:12:17;;;;;;;;;0.25;0.00;;;;;15.58;59.33;99565.06;5081041;28;48308;-70
2023/09/22 02:14:42;;;;;;;;;1.75;0.00;;;;;15.57;59.80;99561.59;5081447;28;45217;-70
2023/09/22 02:17:07;;;;;;;;;1.75;1.75;;;;;15.54;59.38;99568.84;5081069;28;45376;-71
2023/09/22 02:19:36;;;;;;;;;1.67;0.67;;;;;15.54;59.73;99560.91;5081273;28;45201;-70
2023/09/22 02:22:01;;;;;;;;;0.00;0.00;;;;;15.52;59.51;99566.28;5068790;27;45431;-69
2023/09/22 02:24:27;;;;;;;;;0.00;0.00;;;;;15.52;59.79;99573.34;5079894;28;45346;-69
2023/09/22 02:26:52;;;;;;;;;1.67;0.67;;;;;15.51;59.89;99569.84;5062570;28;45336;-70
2023/09/22 02:29:18;;;;;;;;;0.00;0.00;;;;;15.51;59.62;99572.50;5081189;28;45477;-70
2023/09/22 02:31:43;;;;;;;;;0.00;0.00;;;;;15.54;59.85;99574.97;5080972;28;45371;-70
2023/09/22 02:34:08;;;;;;;;;0.25;0.00;;;;;15.54;59.38;99582.91;5081030;28;45431;-70
2023/09/22 02:36:34;;;;;;;;;1.75;0.75;;;;;15.52;59.77;99571.56;5080724;28;45323;-69
2023/09/22 02:38:59;;;;;;;;;1.00;0.25;;;;;15.52;59.76;99576.88;5076392;28;45241;-69
2023/09/22 02:41:25;;;;;;;;;1.25;1.25;;;;;15.53;59.74;99581.19;5080773;28;45167;-69
2023/09/22 02:43:50;;;;;;;;;0.75;0.50;;;;;15.52;59.50;99571.56;5080886;28;45295;-69
2023/09/22 02:46:15;;;;;;;;;0.75;0.75;;;;;15.55;59.58;99579.34;5080654;28;45501;-70
2023/09/22 02:48:40;;;;;;;;;0.00;0.00;;;;;15.55;59.76;99582.00;5080734;28;45244;-69
2023/09/22 02:51:07;;;;;;;;;1.75;1.00;;;;;15.53;59.93;99570.59;5080113;28;52660;-70
2023/09/22 02:53:33;;;;;;;;;0.00;0.00;;;;;15.52;59.80;99568.94;5065580;28;45288;-70
2023/09/22 02:56:04;;;;;;;;;0.50;0.50;;;;;15.54;59.87;99574.13;5080490;28;45438;-70
2023/09/22 02:58:30;;;;;;;;;0.75;0.00;;;;;15.51;59.57;99575.16;5080572;28;46080;-69
2023/09/22 03:00:55;;;;;;;;;0.25;0.25;;;;;15.51;59.46;99569.84;5079150;28;45276;-70
2023/09/22 03:03:20;;;;;;;;;0.00;0.00;;;;;15.47;59.46;99570.09;5062427;28;45178;-70
2023/09/22 03:05:46;;;;;;;;;0.75;0.75;;;;;15.52;59.71;99578.63;5080223;28;45348;-70
2023/09/22 03:08:11;;;;;;;;;0.00;0.00;;;;;15.49;59.38;99571.72;5080469;28;45992;-70
2023/09/22 03:10:38;;;;;;;;;1.75;0.50;;;;;15.49;59.39;99568.22;5080262;28;45248;-70
2023/09/22 03:13:04;;;;;;;;;0.75;0.75;;;;;15.48;59.58;99577.94;5080681;28;45352;-70
2023/09/22 03:15:29;;;;;;;;;0.25;0.25;;;;;15.47;59.55;99575.38;5080073;28;45438;-70
2023/09/22 03:17:54;;;;;;;;;1.25;0.25;;;;;15.44;59.67;99565.81;5080187;28;49031;-70
2023/09/22 03:20:20;;;;;;;;;0.75;0.75;;;;;15.41;59.64;99550.97;5079878;28;50852;-70
2023/09/22 03:22:46;;;;;;;;;1.75;0.75;;;;;15.41;59.80;99566.00;5080342;28;45414;-70
2023/09/22 03:25:13;;;;;;;;;1.00;0.75;;;;;15.42;59.65;99565.03;5078502;28;45564;-70
2023/09/22 03:27:38;;;;;;;;;1.75;1.00;;;;;15.34;59.55;99557.50;5080218;28;45499;-70
2023/09/22 03:30:11;;;;;;;;;1.00;0.75;;;;;15.39;59.53;99567.84;5080035;28;45248;-69
2023/09/22 03:32:38;;;;;;;;;1.25;0.25;;;;;15.35;59.68;99563.66;5080254;28;45325;-70
2023/09/22 03:35:06;;;;;;;;;2.00;1.75;;;;;15.35;59.61;99575.09;5079933;28;45403;-69
2023/09/22 03:37:32;;;;;;;;;2.75;0.75;;;;;15.35;59.59;99568.97;5057829;28;47155;-70
2023/09/22 03:39:58;;;;;;;;;0.50;0.50;;;;;15.33;59.37;99573.47;5065281;28;45995;-70
2023/09/22 03:42:27;;;;;;;;;2.25;1.75;;;;;15.35;59.79;99571.59;5078754;28;45353;-70
2023/09/22 03:44:52;;;;;;;;;3.25;1.50;;;;;15.34;59.56;99570.72;5079901;28;45324;-70
2023/09/22 03:47:17;;;;;;;;;2.75;1.25;;;;;15.34;59.27;99572.53;5079831;28;45253;-70
2023/09/22 03:49:43;;;;;;;;;0.00;0.00;;;;;15.28;59.59;99574.56;5079999;28;45402;-70
2023/09/22 03:52:08;;;;;;;;;11.00;8.00;;;;;15.25;59.27;99568.59;5079863;28;45335;-69
2023/09/22 03:54:34;;;;;;;;;2.50;1.50;;;;;15.26;59.61;99575.59;5079766;28;45234;-70
2023/09/22 03:57:00;;;;;;;;;0.00;0.00;;;;;15.28;59.40;99571.94;5079643;28;45363;-70
2023/09/22 03:59:26;;;;;;;;;3.00;1.50;;;;;15.24;59.70;99565.09;5079929;28;45525;-70
2023/09/22 04:01:51;;;;;;;;;3.25;0.75;;;;;15.24;59.28;99566.88;5079904;28;45209;-70
2023/09/22 04:04:17;;;;;;;;;2.00;0.00;;;;;15.25;59.46;99580.00;5079412;28;45241;-70
2023/09/22 04:06:42;;;;;;;;;2.00;1.50;;;;;15.25;59.59;99581.81;5078131;28;46151;-70
2023/09/22 04:09:08;;;;;;;;;1.00;1.00;;;;;15.26;59.63;99570.31;5079673;28;45252;-70
2023/09/22 04:11:34;;;;;;;;;1.50;1.50;;;;;15.26;59.57;99573.78;5061391;28;45606;-70
2023/09/22 04:14:00;;;;;;;;;0.75;0.75;;;;;15.26;59.76;99563.19;5079570;28;45412;-70
2023/09/22 04:16:26;;;;;;;;;1.00;0.75;;;;;15.28;59.31;99564.00;5079385;28;46432;-70
2023/09/22 04:18:54;;;;;;;;;2.50;0.75;;;;;15.27;59.49;99562.28;5079162;28;50107;-70
2023/09/22 04:21:23;;;;;;;;;3.75;2.75;;;;;15.23;59.74;99550.16;5079454;28;45848;-69
2023/09/22 04:23:57;;;;;;;;;3.25;2.00;;;;;15.25;59.77;99566.78;5066299;28;45226;-69
2023/09/22 04:26:29;;;;;;;;;3.50;2.50;;;;;15.27;59.76;99566.72;5078987;28;46533;-69
2023/09/22 04:28:59;;;;;;;;;2.50;2.00;;;;;15.23;59.63;99565.16;5081523;28;45241;-69
2023/09/22 04:31:25;;;;;;;;;3.75;2.50;;;;;15.23;59.88;99557.22;5083016;28;45489;-69
2023/09/22 04:33:54;;;;;;;;;2.25;1.75;;;;;15.24;59.44;99554.50;5082878;28;45317;-69
2023/09/22 04:36:21;;;;;;;;;2.00;2.00;;;;;15.26;59.52;99552.63;5082354;28;45351;-69
2023/09/22 04:38:48;;;;;;;;;1.75;1.75;;;;;15.24;59.96;99551.88;5078106;28;45284;-69
2023/09/22 04:41:14;;;;;;;;;3.75;3.00;;;;;15.25;59.52;99558.00;5082563;28;45336;-69
2023/09/22 04:43:39;;;;;;;;;1.00;1.00;;;;;15.23;59.91;99562.50;5082486;28;45403;-69
2023/09/22 04:46:04;;;;;;;;;5.75;3.00;;;;;15.23;59.92;99568.66;5064136;28;47126;-69
2023/09/22 04:48:30;;;;;;;;;4.00;4.00;;;;;15.22;59.59;99559.00;5082290;28;52932;-69
2023/09/22 04:50:55;;;;;;;;;2.50;1.00;;;;;15.24;59.96;99564.22;5063940;28;50629;-69
2023/09/22 04:53:20;;;;;;;;;4.75;3.50;;;;;15.21;59.55;99561.75;5082492;28;45485;-69
2023/09/22 04:55:47;;;;;;;;;4.50;3.00;;;;;15.20;60.00;99558.22;5081624;28;59835;-69
2023/09/22 04:58:14;;;;;;;;;2.50;2.50;;;;;15.22;59.57;99563.44;5063821;28;45658;-69
2023/09/22 05:00:39;;;;;;;;;2.00;2.00;;;;;15.21;59.65;99562.59;5082430;28;45310;-69
2023/09/22 05:03:05;;;;;;;;;2.25;2.00;;;;;15.20;59.91;99566.16;5082173;28;45214;-69
2023/09/22 05:05:31;;;;;;;;;3.25;3.25;;;;;15.20;59.71;99563.53;5081969;28;45466;-69
2023/09/22 05:07:57;;;;;;;;;1.75;1.75;;;;;15.21;59.95;99559.09;5082335;28;45256;-69
2023/09/22 05:10:22;;;;;;;;;3.00;2.00;;;;;15.21;59.67;99559.09;5082080;28;45162;-69
2023/09/22 05:12:48;;;;;;;;;0.50;0.50;;;;;15.17;59.44;99566.34;5082123;28;45261;-69
2023/09/22 05:15:15;;;;;;;;;2.25;0.25;;;;;15.14;59.92;99566.47;5082127;28;45327;-69
2023/09/22 05:17:40;;;;;;;;;2.50;2.00;;;;;15.16;59.66;99561.13;5063805;28;45478;-69
2023/09/22 05:20:11;;;;;;;;;3.00;1.50;;;;;15.11;59.60;99556.06;5063819;28;45247;-69
2023/09/22 05:22:37;;;;;;;;;5.00;1.50;;;;;15.14;59.57;99563.00;5060229;28;45452;-69
2023/09/22 05:25:04;;;;;;;;;1.50;1.50;;;;;15.12;59.76;99563.09;5077951;28;46293;-70
2023/09/22 05:27:29;;;;;;;;;1.75;1.75;;;;;15.16;59.95;99569.06;5081779;28;45390;-70
2023/09/22 05:29:54;;;;;;;;;1.00;1.00;;;;;15.13;59.59;99561.28;5081616;28;45507;-71
2023/09/22 05:32:20;;;;;;;;;1.25;1.25;;;;;15.13;59.57;99562.13;5081859;28;45339;-69
2023/09/22 05:34:45;;;;;;;;;2.00;1.00;;;;;15.13;59.92;99551.53;5081669;28;45452;-71
2023/09/22 05:37:11;;;;;;;;;3.25;3.25;;;;;15.15;59.92;99559.41;5064703;27;48584;-69
2023/09/22 05:39:38;;;;;;;;;1.00;1.00;;;;;15.13;59.66;99548.88;5100795;27;45249;-78
2023/09/22 05:42:04;;;;;;;;;3.00;1.00;;;;;15.13;60.16;99553.34;5082972;27;45567;-76
2023/09/22 05:44:29;;;;;;;;;2.50;1.25;;;;;15.15;59.71;99554.97;5062143;28;47108;-75
2023/09/22 05:46:55;;;;;;;;;2.00;1.00;;;;;15.19;60.10;99559.16;5067605;28;46352;-74
2023/09/22 05:49:20;;;;;;;;;2.75;1.75;;;;;15.18;59.61;99559.25;5063327;28;45254;-73
2023/09/22 05:51:48;;;;;;;;;3.00;3.00;;;;;15.20;59.58;99552.94;5080455;28;45312;-73
2023/09/22 05:54:13;;;;;;;;;2.75;1.00;;;;;15.24;59.25;99557.16;5061308;28;47099;-72
2023/09/22 05:56:40;;;;;;;;;3.50;2.00;;;;;15.23;59.54;99552.78;5080333;28;53269;-73
2023/09/22 05:59:06;;;;;;;;;3.25;1.75;;;;;15.27;59.73;99559.63;5081171;28;45257;-74
2023/09/22 06:01:33;;;;;;;;;3.00;1.25;;;;;15.23;59.81;99538.69;5062222;28;45534;-75
2023/09/22 06:03:59;;;;;;;;;1.00;1.00;;;;;15.27;60.13;99549.03;5079274;28;46409;-76
2023/09/22 06:06:24;;;;;;;;;1.00;1.00;;;;;15.23;59.72;99539.56;5080791;28;45479;-75
2023/09/22 06:08:50;;;;;;;;;1.50;1.00;;;;;15.26;60.06;99554.41;5081151;28;45359;-76
2023/09/22 06:11:17;;;;;;;;;2.75;0.25;;;;;15.27;60.21;99554.34;5070313;28;45282;-75
2023/09/22 06:13:42;;;;;;;;;2.50;2.00;;;;;15.31;60.02;99556.81;5080043;28;46181;-79
2023/09/22 06:16:07;;;;;;;;;2.50;1.25;;;;;15.32;60.01;99555.88;5062694;28;45474;-74
2023/09/22 06:18:33;;;;;;;;;2.25;0.75;;;;;15.32;60.13;99561.16;5080974;28;45412;-77
2023/09/22 06:21:00;;;;;;;;;0.25;0.25;;;;;15.31;60.36;99564.75;5070466;28;45246;-74
2023/09/22 06:23:27;;;;;;;;;2.75;1.25;;;;;15.30;60.23;99563.91;5059600;27;47437;-70
2023/09/22 06:25:57;;;;;;;;;2.75;2.75;;;;;15.30;60.63;99571.84;5072045;28;45261;-67
2023/09/22 06:28:22;;;;;;;;;2.50;1.25;;;;;15.27;59.95;99575.50;5094447;27;45450;-66
2023/09/22 06:30:48;;;;;;;;;3.00;1.00;;;;;15.24;60.05;99577.44;5088296;27;45494;-64
2023/09/22 06:33:16;;;;;;;;;3.00;1.00;;;;;15.17;60.49;99563.69;5080543;28;46084;-67
2023/09/22 06:35:41;;;;;;;;;0.75;0.75;;;;;15.14;60.69;99574.41;5061240;28;45502;-67
2023/09/22 06:38:06;;;;;;;;;1.25;1.25;;;;;15.07;60.67;99568.59;5073976;27;45450;-70
2023/09/22 06:40:36;;;;;;;;;1.00;1.00;;;;;15.05;60.22;99559.88;5066024;28;45558;-70
2023/09/22 06:43:01;;;;;;;;;1.25;1.25;;;;;14.96;60.63;99544.50;5078678;28;46619;-71
2023/09/22 06:45:26;;;;;;;;;0.25;0.25;;;;;15.00;60.65;99566.34;5068973;28;45833;-71
2023/09/22 06:47:52;;;;;;;;;2.00;0.00;;;;;14.97;60.33;99559.44;5083903;27;48104;-71
2023/09/22 06:50:17;;;;;;;;;0.50;0.50;;;;;14.94;60.29;99565.72;5080299;27;45525;-71
2023/09/22 06:52:43;;;;;;;;;1.00;1.00;;;;;14.91;60.32;99554.44;5080405;28;45209;-72
2023/09/22 06:55:13;;;;;;;;;0.50;0.00;;;;;14.93;60.29;99561.38;5080549;28;45261;-72
2023/09/22 06:57:41;;;;;;;;;0.75;0.75;;;;;14.92;60.42;99558.81;5080652;28;45481;-72
2023/09/22 07:00:28;;;;;;;;;1.00;1.00;;;;;14.92;60.68;99558.81;5080677;28;45172;-72
2023/09/22 07:02:55;;;;;;;;;2.50;1.25;;;;;14.91;60.09;99560.59;5080103;28;46510;-72
2023/09/22 07:05:20;;;;;;;;;0.50;0.50;;;;;14.88;60.56;99559.88;5079951;27;45372;-72
2023/09/22 07:07:46;;;;;;;;;0.50;0.50;;;;;14.87;60.58;99560.84;5080649;28;45444;-72
2023/09/22 07:10:13;;;;;;;;;0.25;0.25;;;;;14.88;60.66;99559.88;5080501;28;45469;-73
2023/09/22 07:12:39;;;;;;;;;2.25;1.25;;;;;14.84;60.83;99553.91;5078933;28;47302;-72
2023/09/22 07:15:06;;;;;;;;;0.00;0.00;;;;;14.87;60.65;99566.97;5080171;28;45272;-72
2023/09/22 07:17:31;;;;;;;;;2.00;0.25;;;;;14.85;61.16;99566.19;5080524;28;45215;-73
2023/09/22 07:19:58;;;;;;;;;1.00;1.00;;;;;14.81;61.00;99558.50;5080029;28;45399;-72
2023/09/22 07:22:23;;;;;;;;;1.25;1.25;;;;;14.83;61.05;99559.25;5088571;27;46101;-72
2023/09/22 07:24:51;;;;;;;;;1.00;1.00;;;;;14.83;61.34;99554.84;5095146;27;45244;-73
2023/09/22 07:27:16;;;;;;;;;1.00;1.00;;;;;14.84;61.55;99559.22;5100768;27;45364;-72
2023/09/22 07:29:42;;;;;;;;;0.25;0.25;;;;;14.81;61.08;99550.56;5075437;27;45484;-72
2023/09/22 07:32:08;;;;;;;;;1.00;0.50;;;;;14.85;61.03;99558.25;5080171;28;45379;-72
2023/09/22 07:34:33;;;;;;;;;0.50;0.50;;;;;14.85;61.27;99547.66;5095536;27;45335;-72
2023/09/22 07:36:59;;;;;;;;;0.25;0.25;;;;;14.87;61.35;99547.63;5099193;27;45184;-72
2023/09/22 07:39:24;;;;;;;;;1.50;1.50;;;;;14.92;61.57;99543.78;5077387;27;45550;-72
2023/09/22 07:41:49;;;;;;;;;3.00;1.00;;;;;14.98;61.67;99550.56;5079960;28;45966;-72
2023/09/22 07:44:18;;;;;;;;;3.00;1.50;;;;;15.00;61.76;99553.97;5079747;28;47033;-72
2023/09/22 07:46:44;;;;;;;;;1.75;1.75;;;;;15.04;61.55;99547.59;5080318;28;45258;-74
2023/09/22 07:49:10;;;;;;;;;1.00;1.00;;;;;15.05;61.43;99544.00;5079770;28;45272;-74
2023/09/22 07:51:36;;;;;;;;;1.00;1.00;;;;;15.10;61.54;99549.06;5079732;28;46082;-72
2023/09/22 07:54:02;;;;;;;;;3.00;1.00;;;;;15.10;61.63;99544.63;5079691;28;45465;-73
2023/09/22 07:56:28;;;;;;;;;2.00;1.75;;;;;15.17;61.84;99552.25;5079748;28;45301;-73
2023/09/22 07:58:53;;;;;;;;;10.50;8.50;;;;;15.17;61.98;99552.25;5079713;28;45572;-74
2023/09/22 08:01:18;;;;;;;;;1.00;1.00;;;;;15.19;61.68;99551.22;5079770;28;46276;-73
2023/09/22 08:03:44;;;;;;;;;1.67;0.33;;;;;15.18;61.81;99552.19;5081691;28;45212;-73
2023/09/22 08:06:11;;;;;;;;;3.75;2.00;;;;;15.20;61.77;99558.22;5083281;28;45170;-72
2023/09/22 08:08:37;;;;;;;;;0.00;0.00;;;;;15.23;61.90;99547.50;5082029;28;45255;-71
2023/09/22 08:11:04;;;;;;;;;0.33;0.33;;;;;15.19;62.07;99534.50;5081859;28;46693;-72
2023/09/22 08:13:30;;;;;;;;;1.00;1.00;;;;;15.23;62.19;99543.97;5083285;28;45325;-72
2023/09/22 08:15:55;;;;;;;;;2.75;1.25;;;;;15.23;62.43;99546.63;5083147;28;45390;-73
2023/09/22 08:18:20;;;;;;;;;1.00;1.00;;;;;15.26;62.38;99546.47;5083206;28;45598;-72
2023/09/22 08:20:46;;;;;;;;;2.00;1.00;;;;;15.23;62.11;99551.91;5073267;28;47245;-73
2023/09/22 08:23:11;;;;;;;;;2.00;1.25;;;;;15.25;61.96;99548.25;5077385;28;45376;-73
2023/09/22 08:25:43;;;;;;;;;0.75;0.75;;;;;15.25;61.94;99552.72;5076375;27;45385;-74
2023/09/22 08:28:12;;;;;;;;;0.00;0.00;;;;;15.28;62.46;99561.34;5102186;27;45219;-73
2023/09/22 08:30:39;;;;;;;;;1.00;1.00;;;;;15.25;62.33;99558.84;5103436;27;46045;-74
2023/09/22 08:33:05;;;;;;;;;0.25;0.25;;;;;15.27;62.44;99554.34;5084977;27;45204;-74
2023/09/22 08:35:30;;;;;;;;;2.75;0.00;;;;;15.26;62.04;99549.13;5103251;27;45273;-74
2023/09/22 08:37:55;;;;;;;;;2.00;1.00;;;;;15.27;62.42;99556.97;5095506;27;45255;-74
2023/09/22 08:40:21;;;;;;;;;1.33;0.67;;;;;15.27;62.24;99553.50;5082767;28;45352;-73
2023/09/22 08:42:48;;;;;;;;;0.67;0.67;;;;;15.27;62.45;99561.44;5082732;28;45281;-73
2023/09/22 08:45:14;;;;;;;;;2.25;0.25;;;;;15.27;62.12;99564.06;5064577;28;45446;-74
2023/09/22 08:47:40;;;;;;;;;1.33;0.00;;;;;15.32;62.06;99562.03;5082634;28;45300;-76
2023/09/22 08:50:11;;;;;;;;;4.50;2.75;;;;;15.35;62.57;99561.03;5064213;28;46375;-75
2023/09/22 08:52:39;;;;;;;;;2.50;2.50;;;;;15.38;62.39;99555.56;5064172;28;45281;-74
2023/09/22 08:55:08;;;;;;;;;3.75;3.75;;;;;15.41;62.29;99556.25;5082216;28;45494;-75
2023/09/22 08:57:34;;;;;;;;;5.25;5.25;;;;;15.47;62.20;99560.38;5082422;28;45262;-75
2023/09/22 08:59:59;;;;;;;;;8.50;7.75;;;;;15.48;62.71;99551.47;5080977;28;46263;-75
2023/09/22 09:02:25;;;;;;;;;6.00;5.00;;;;;15.53;62.23;99549.44;5082222;28;45221;-75
2023/09/22 09:04:51;;;;;;;;;6.75;5.00;;;;;15.57;61.90;99560.72;5064311;28;45413;-76
2023/09/22 09:07:18;;;;;;;;;11.25;7.00;;;;;15.59;62.68;99551.75;5082274;28;45300;-77
2023/09/22 09:09:45;;;;;;;;;2.75;2.75;;;;;15.70;62.20;99560.94;5082267;28;45401;-77
2023/09/22 09:12:12;;;;;;;;;4.50;3.50;;;;;15.73;61.99;99560.75;5082123;28;45373;-76
2023/09/22 09:14:38;;;;;;;;;2.50;2.25;;;;;15.74;62.23;99559.81;5080819;28;45488;-77
2023/09/22 09:17:20;;;;;;;;;4.25;2.25;;;;;15.81;62.69;99569.16;5081970;28;45494;-78
2023/09/22 09:20:00;;;;;;;;;2.25;1.50;;;;;15.85;62.62;99565.41;5082052;28;45437;-77
2023/09/22 09:22:35;;;;;;;;;1.00;1.00;;;;;15.91;62.68;99570.38;5070016;28;45158;-76
2023/09/22 09:25:02;;;;;;;;;1.33;1.00;;;;;15.96;62.13;99563.97;5081757;28;45306;-77
2023/09/22 09:27:28;;;;;;;;;0.00;0.00;;;;;16.03;62.69;99562.69;5082161;28;45227;-77
2023/09/22 09:29:54;;;;;;;;;0.00;0.00;;;;;16.09;62.46;99567.66;5081805;28;46005;-79
2023/09/22 09:32:27;;;;;;;;;1.00;0.00;;;;;16.15;62.42;99561.13;5082113;28;45354;-79
2023/09/22 09:34:52;;;;;;;;;0.33;0.33;;;;;16.21;62.10;99580.22;5079972;28;45236;-78
2023/09/22 09:37:19;;;;;;;;;0.33;0.33;;;;;16.29;62.21;99563.88;5061074;28;45283;-79
2023/09/22 09:39:56;;;;;;;;;0.00;0.00;;;;;16.39;62.03;99580.13;5097107;27;45509;-80
2023/09/22 09:42:23;;;;;;;;;0.25;0.25;;;;;16.45;61.65;99566.50;5102413;27;45366;-80
2023/09/22 09:44:53;;;;;;;;;2.00;0.00;;;;;16.52;61.78;99567.84;5102491;27;45354;-80
2023/09/22 09:47:22;;;;;;;;;1.00;0.00;;;;;16.62;61.77;99570.84;5101395;27;45504;-79
2023/09/22 09:49:52;;;;;;;;;0.00;0.00;;;;;16.73;61.56;99567.56;5083854;27;48106;-79
2023/09/22 09:52:24;;;;;;;;;0.00;0.00;;;;;16.81;61.62;99570.63;5083413;27;45735;-80
2023/09/22 09:55:01;;;;;;;;;1.00;1.00;;;;;16.91;61.70;99565.66;5071297;28;45339;-78
2023/09/22 09:57:28;;;;;;;;;0.00;0.00;;;;;17.05;61.63;99583.41;5084649;27;45247;-79
2023/09/22 09:59:54;;;;;;;;;2.00;0.00;;;;;17.10;60.90;99588.44;5100202;27;45893;-80
2023/09/22 10:02:21;;;;;;;;;0.00;0.00;;;;;17.12;60.89;99586.53;5101791;27;45359;-80
2023/09/22 10:04:48;;;;;;;;;0.00;0.00;;;;;17.15;60.79;99583.72;5083871;27;45393;-80
2023/09/22 10:07:15;;;;;;;;;0.00;0.00;;;;;17.19;60.31;99596.72;5101653;27;45461;-78
2023/09/22 10:09:40;;;;;;;;;1.00;1.00;;;;;17.19;59.94;99596.72;5100662;27;48467;-78
2023/09/22 10:12:06;;;;;;;;;0.00;0.00;;;;;17.20;60.04;99606.38;5083173;27;45209;-78
2023/09/22 10:14:46;;;;;;;;;0.33;0.00;;;;;17.21;60.03;99626.66;5102022;27;45179;-78
2023/09/22 10:17:22;;;;;;;;;0.00;0.00;;;;;17.18;59.96;99639.28;5101506;27;45311;-78
2023/09/22 10:19:48;;;;;;;;;0.00;0.00;;;;;17.21;59.72;99631.97;5083096;27;48470;-78
2023/09/22 10:22:13;;;;;;;;;0.00;0.00;;;;;17.18;59.45;99629.53;5081116;28;45371;-78
2023/09/22 10:24:39;;;;;;;;;0.00;0.00;;;;;17.28;59.09;99647.53;5075069;28;45346;-78
2023/09/22 10:27:09;;;;;;;;;0.00;0.00;;;;;17.29;58.81;99646.59;5080153;28;45236;-78
2023/09/22 10:29:34;;;;;;;;;0.00;0.00;;;;;17.31;59.22;99647.38;5079274;28;47789;-77
2023/09/22 10:32:15;;;;;;;;;0.00;0.00;;;;;17.33;58.93;99672.91;5081072;28;45441;-78
2023/09/22 10:34:47;;;;;;;;;0.00;0.00;;;;;17.31;59.06;99674.78;5081150;28;45510;-78
2023/09/22 10:37:14;;;;;;;;;0.00;0.00;;;;;17.37;58.56;99665.56;5077771;28;45403;-77
2023/09/22 10:40:11;;;;;;;;;0.67;0.67;;;;;17.39;58.08;99684.94;5077758;28;46226;-77
2023/09/22 10:42:44;;;;;;;;;0.00;0.00;;;;;17.34;57.97;99687.00;5080827;28;45324;-77
2023/09/22 10:45:11;;;;;;;;;0.00;0.00;;;;;17.33;57.87;99694.13;5080966;28;45228;-78
2023/09/22 10:47:44;;;;;;;;;0.00;0.00;;;;;17.32;57.69;99683.56;5080782;28;45294;-77
2023/09/22 10:50:18;;;;;;;;;0.00;0.00;;;;;17.32;57.74;99697.72;5079155;28;47323;-76
2023/09/22 10:53:06;;;;;;;;;0.00;0.00;;;;;17.37;57.55;99713.38;5078836;28;45450;-76
2023/09/22 10:55:41;;;;;;;;;0.00;0.00;;;;;17.37;57.49;99716.91;5074773;28;45309;-76
2023/09/22 10:58:08;;;;;;;;;0.00;0.00;;;;;17.39;57.13;99727.41;5080768;28;45264;-76
2023/09/22 11:00:36;;;;;;;;;0.00;0.00;;;;;17.38;57.37;99733.66;5080642;28;46529;-76
2023/09/22 11:03:13;;;;;;;;;0.00;0.00;;;;;17.29;57.36;99726.25;5080529;28;45324;-77
2023/09/22 11:05:40;;;;;;;;;0.67;0.00;;;;;17.25;57.35;99748.63;5062224;28;45295;-76
2023/09/22 11:08:14;;;;;;;;;0.00;0.00;;;;;17.17;57.23;99747.25;5062478;28;45439;-76
2023/09/22 11:10:42;;;;;;;;;0.00;0.00;;;;;17.10;57.52;99745.91;5079188;28;48126;-75
2023/09/22 11:13:07;;;;;;;;;0.00;0.00;;;;;17.05;57.66;99745.31;5093377;27;45460;-76
2023/09/22 11:15:35;;;;;;;;;0.00;0.00;;;;;17.06;57.43;99760.28;5100808;27;45588;-76
2023/09/22 11:18:00;;;;;;;;;0.67;0.67;;;;;17.03;57.28;99760.44;5100981;27;45261;-76
2023/09/22 11:20:27;;;;;;;;;0.00;0.00;;;;;17.06;57.44;99754.97;5073192;27;46970;-76
2023/09/22 11:22:54;;;;;;;;;0.00;0.00;;;;;17.14;57.01;99766.00;5072576;28;45335;-77
2023/09/22 11:25:21;;;;;;;;;0.00;0.00;;;;;17.20;56.96;99762.16;5079790;28;45512;-77
2023/09/22 11:27:48;;;;;;;;;5.00;2.75;;;;;17.29;56.72;99760.78;5080266;28;45262;-77
2023/09/22 11:30:20;;;;;;;;;0.33;0.00;;;;;17.36;56.68;99770.09;5080161;28;45206;-76
2023/09/22 11:32:47;;;;;;;;;0.00;0.00;;;;;17.52;56.22;99778.00;5093856;27;45426;-77